Time;durP1;ratioP1;P1;durP2;ratioP2;P2;SDS_P1;SDS_P2;PMS_P1;PMS_P2;Temp;Humidity;BMP_temperature;BMP_pressure;BME280_temperature;BME280_humidity;BME280_pressure;Samples;Min_cycle;Max_cycle;Signal;HPM_P1;HPM_P2
2021/01/20 00:01:22;;;;;;;12.45;5.57;;;7.50;50.10;;;;;;5011140;28;20385;-72
2021/01/20 00:03:48;;;;;;;8.85;5.60;;;7.40;49.70;;;;;;5010560;28;20427;-73
2021/01/20 00:06:13;;;;;;;12.23;5.68;;;7.30;50.20;;;;;;5009741;28;20389;-72
2021/01/20 00:08:39;;;;;;;9.93;5.20;;;7.40;49.30;;;;;;5010827;28;20396;-72
2021/01/20 00:11:05;;;;;;;10.77;5.40;;;7.30;49.50;;;;;;5011172;28;20389;-73
2021/01/20 00:13:30;;;;;;;12.82;5.80;;;7.30;49.50;;;;;;5011114;28;20384;-75
2021/01/20 00:15:56;;;;;;;10.18;5.90;;;7.20;50.40;;;;;;5011032;28;20439;-72
2021/01/20 00:18:22;;;;;;;12.37;5.83;;;7.10;50.80;;;;;;5009953;28;20446;-75
2021/01/20 00:20:48;;;;;;;8.90;5.10;;;7.20;50.60;;;;;;5009064;28;20392;-74
2021/01/20 00:23:14;;;;;;;10.25;5.15;;;7.20;50.00;;;;;;5010846;28;20479;-75
2021/01/20 00:25:40;;;;;;;10.25;5.10;;;7.20;49.60;;;;;;5010791;28;20926;-74
2021/01/20 00:28:05;;;;;;;11.40;5.63;;;7.10;49.60;;;;;;5010680;28;20393;-72
2021/01/20 00:30:31;;;;;;;9.57;4.53;;;7.10;50.60;;;;;;5010270;28;20404;-75
2021/01/20 00:32:58;;;;;;;11.25;5.22;;;7.10;50.30;;;;;;5010601;28;20411;-73
2021/01/20 00:35:24;;;;;;;7.77;4.80;;;7.10;49.10;;;;;;5010803;28;20396;-74
2021/01/20 00:37:50;;;;;;;10.00;4.65;;;7.00;50.00;;;;;;5010647;28;21332;-74
2021/01/20 00:40:16;;;;;;;8.32;4.18;;;7.00;49.70;;;;;;5010408;28;20389;-73
2021/01/20 00:42:42;;;;;;;7.82;4.80;;;6.90;50.20;;;;;;5010360;28;20862;-73
2021/01/20 00:45:08;;;;;;;10.37;4.17;;;6.90;49.40;;;;;;5010603;28;20396;-74
2021/01/20 00:47:33;;;;;;;7.80;4.43;;;6.90;50.40;;;;;;5010020;28;20397;-74
2021/01/20 00:49:59;;;;;;;9.88;4.53;;;6.90;49.40;;;;;;5008743;28;20890;-73
2021/01/20 00:52:24;;;;;;;8.73;4.35;;;6.80;49.30;;;;;;5010490;28;20464;-74
2021/01/20 00:54:50;;;;;;;11.10;4.15;;;6.80;50.10;;;;;;5010555;28;20428;-74
2021/01/20 00:57:15;;;;;;;8.07;4.40;;;6.90;49.00;;;;;;5010476;28;20385;-72
2021/01/20 00:59:41;;;;;;;10.55;4.30;;;6.90;47.80;;;;;;5009831;28;20408;-73
2021/01/20 01:02:06;;;;;;;8.65;4.32;;;6.80;48.70;;;;;;5010363;28;20735;-73
2021/01/20 01:04:32;;;;;;;7.65;4.60;;;6.70;50.00;;;;;;5010375;28;20384;-72
2021/01/20 01:06:58;;;;;;;10.55;4.40;;;6.60;50.10;;;;;;5011311;28;20393;-73
2021/01/20 01:09:23;;;;;;;11.00;4.78;;;6.60;50.10;;;;;;5010686;28;20396;-74
2021/01/20 01:11:49;;;;;;;8.45;4.30;;;6.80;50.00;;;;;;5014161;28;20403;-74
2021/01/20 01:14:14;;;;;;;8.80;4.40;;;6.70;49.20;;;;;;5014374;28;20401;-74
2021/01/20 01:16:40;;;;;;;7.80;4.53;;;6.70;49.80;;;;;;5014480;28;20423;-73
2021/01/20 01:19:06;;;;;;;8.60;4.80;;;6.90;48.10;;;;;;5014206;28;20416;-74
2021/01/20 01:21:31;;;;;;;10.13;4.60;;;7.00;46.70;;;;;;5015544;28;20393;-73
2021/01/20 01:23:57;;;;;;;7.43;4.20;;;7.10;46.40;;;;;;5015154;28;20389;-72
2021/01/20 01:26:22;;;;;;;11.57;4.50;;;7.20;45.50;;;;;;5013697;28;20396;-75
2021/01/20 01:28:48;;;;;;;11.67;5.20;;;7.20;45.70;;;;;;5012901;28;20396;-72
2021/01/20 01:31:13;;;;;;;9.10;4.80;;;7.20;46.30;;;;;;5013149;28;20396;-73
2021/01/20 01:33:39;;;;;;;9.23;4.70;;;7.20;46.40;;;;;;5014012;28;20463;-74
2021/01/20 01:36:05;;;;;;;7.20;4.47;;;7.30;45.70;;;;;;5013725;28;20400;-73
2021/01/20 01:38:30;;;;;;;9.10;4.82;;;7.30;45.70;;;;;;5013673;28;20874;-73
2021/01/20 01:40:56;;;;;;;8.50;4.40;;;7.40;45.20;;;;;;5013290;28;20435;-72
2021/01/20 01:43:23;;;;;;;6.50;4.90;;;7.60;44.80;;;;;;5010761;28;20392;-72
2021/01/20 01:45:49;;;;;;;7.53;4.60;;;7.70;43.60;;;;;;5013252;28;20393;-74
2021/01/20 01:48:15;;;;;;;5.90;4.22;;;7.80;42.20;;;;;;5013012;28;20821;-74
2021/01/20 01:50:41;;;;;;;6.07;4.00;;;7.80;41.80;;;;;;5012811;28;20427;-75
2021/01/20 01:53:08;;;;;;;4.63;4.07;;;7.90;41.30;;;;;;5013216;28;20388;-74
2021/01/20 01:55:35;;;;;;;7.30;3.90;;;7.90;41.00;;;;;;5013080;28;20952;-73
2021/01/20 01:58:01;;;;;;;7.00;4.25;;;7.90;40.40;;;;;;5012508;28;20835;-73
2021/01/20 02:00:27;;;;;;;8.10;4.30;;;7.90;40.70;;;;;;5012818;28;20416;-72
2021/01/20 02:02:52;;;;;;;8.85;4.18;;;7.80;40.40;;;;;;5012953;28;20419;-73
2021/01/20 02:05:18;;;;;;;6.45;3.88;;;7.90;40.50;;;;;;5012903;28;20396;-73
2021/01/20 02:07:45;;;;;;;7.63;4.05;;;7.90;39.80;;;;;;5014603;28;20385;-73
2021/01/20 02:10:11;;;;;;;7.57;4.07;;;7.70;40.00;;;;;;5014882;28;20411;-74
2021/01/20 02:13:14;;;;;;;6.82;3.30;;;7.80;39.70;;;;;;5015291;28;20392;-73
2021/01/20 02:16:21;;;;;;;9.38;4.35;;;7.70;38.90;;;;;;5014731;28;20380;-75
2021/01/20 02:18:51;;;;;;;7.35;3.63;;;7.70;39.00;;;;;;4933832;29;20556;-72
2021/01/20 02:21:35;;;;;;;9.10;3.90;;;7.70;38.80;;;;;;4985708;28;20394;-73
2021/01/20 02:24:11;;;;;;;6.80;4.10;;;7.70;38.60;;;;;;4996636;28;20404;-72
2021/01/20 02:26:58;;;;;;;7.32;4.05;;;7.70;38.50;;;;;;4999601;28;20770;-72
2021/01/20 02:29:29;;;;;;;4.00;3.50;;;7.60;38.80;;;;;;5013796;28;20493;-73
2021/01/20 02:31:55;;;;;;;8.93;4.35;;;7.60;39.50;;;;;;5014411;28;20966;-73
2021/01/20 02:34:22;;;;;;;5.10;3.70;;;7.60;38.70;;;;;;5014295;28;20405;-74
2021/01/20 02:36:50;;;;;;;5.38;3.85;;;7.60;38.80;;;;;;5014020;28;20440;-75
2021/01/20 02:39:17;;;;;;;6.50;4.20;;;7.60;39.10;;;;;;5012177;28;20456;-72
2021/01/20 02:41:43;;;;;;;7.80;3.97;;;7.60;39.10;;;;;;5015426;28;20392;-75
2021/01/20 02:44:09;;;;;;;6.53;4.20;;;7.60;38.50;;;;;;5015797;28;20923;-73
2021/01/20 02:46:36;;;;;;;7.43;4.05;;;7.70;38.30;;;;;;5015511;28;20455;-73
2021/01/20 02:49:03;;;;;;;8.45;3.80;;;7.80;37.60;;;;;;5013571;28;20400;-74
2021/01/20 02:51:45;;;;;;;8.60;4.10;;;7.80;37.80;;;;;;5012329;28;20397;-72
2021/01/20 02:54:14;;;;;;;6.90;4.00;;;7.70;38.30;;;;;;5013022;28;20500;-73
2021/01/20 02:56:46;;;;;;;7.95;4.10;;;7.70;37.40;;;;;;5012597;28;20472;-72
2021/01/20 02:59:13;;;;;;;7.90;4.07;;;7.70;37.80;;;;;;5012346;28;20481;-74
2021/01/20 03:01:43;;;;;;;4.43;3.65;;;7.70;37.40;;;;;;5012394;28;20420;-74
2021/01/20 03:04:10;;;;;;;6.30;4.30;;;7.80;37.30;;;;;;5012560;28;20855;-74
2021/01/20 03:06:36;;;;;;;5.35;3.60;;;7.80;36.40;;;;;;5010751;28;20404;-72
2021/01/20 03:09:03;;;;;;;6.47;3.88;;;7.90;36.30;;;;;;5010956;28;20440;-72
2021/01/20 03:11:28;;;;;;;8.45;4.10;;;7.90;36.60;;;;;;5013309;28;20396;-72
2021/01/20 03:13:55;;;;;;;7.80;4.23;;;7.80;36.90;;;;;;5012887;28;20392;-73
2021/01/20 03:16:26;;;;;;;9.40;4.90;;;7.90;36.60;;;;;;5013093;28;20392;-74
2021/01/20 03:18:52;;;;;;;8.18;4.15;;;8.00;37.20;;;;;;5011053;28;20464;-74
2021/01/20 03:21:17;;;;;;;5.27;4.40;;;7.90;37.10;;;;;;5011604;28;20425;-73
2021/01/20 03:23:43;;;;;;;5.77;3.80;;;7.90;36.70;;;;;;5011704;28;20488;-74
2021/01/20 03:26:09;;;;;;;13.27;4.13;;;7.80;36.60;;;;;;5011896;28;20388;-73
2021/01/20 03:28:34;;;;;;;7.30;4.53;;;7.90;36.00;;;;;;5011709;28;20397;-73
2021/01/20 03:31:00;;;;;;;6.93;4.20;;;7.90;36.20;;;;;;5011589;28;20439;-73
2021/01/20 03:33:25;;;;;;;6.00;4.00;;;7.80;36.90;;;;;;5010873;28;20532;-73
2021/01/20 03:35:51;;;;;;;7.40;3.50;;;7.80;36.00;;;;;;5012051;28;20396;-74
2021/01/20 03:38:16;;;;;;;6.17;4.40;;;7.80;36.00;;;;;;5010946;28;20969;-73
2021/01/20 03:40:42;;;;;;;7.37;4.20;;;7.70;36.40;;;;;;5010927;28;20867;-74
2021/01/20 03:43:07;;;;;;;7.27;4.60;;;7.70;35.90;;;;;;5011296;28;20850;-72
2021/01/20 03:45:33;;;;;;;8.30;4.33;;;7.70;36.40;;;;;;5011276;28;20943;-72
2021/01/20 03:47:58;;;;;;;7.20;4.13;;;7.60;35.90;;;;;;5010606;28;20423;-72
2021/01/20 03:50:24;;;;;;;5.80;4.63;;;7.70;35.80;;;;;;5010821;28;20774;-74
2021/01/20 03:52:50;;;;;;;9.30;4.10;;;7.60;36.00;;;;;;5011164;28;20431;-74
2021/01/20 03:55:15;;;;;;;6.33;4.50;;;7.50;36.90;;;;;;5009980;28;20482;-73
2021/01/20 03:57:41;;;;;;;4.73;4.03;;;7.50;36.90;;;;;;5010330;28;20872;-74
2021/01/20 04:00:07;;;;;;;6.50;4.50;;;7.50;36.40;;;;;;5010985;28;20426;-74
2021/01/20 04:02:32;;;;;;;4.55;3.90;;;7.50;36.70;;;;;;5009820;28;20750;-73
2021/01/20 04:04:58;;;;;;;6.88;4.03;;;7.60;36.60;;;;;;5010991;28;20392;-74
2021/01/20 04:07:24;;;;;;;8.25;3.65;;;7.60;36.60;;;;;;5010725;28;20387;-73
2021/01/20 04:09:49;;;;;;;5.20;3.80;;;7.60;35.90;;;;;;5010455;28;20879;-72
2021/01/20 04:12:15;;;;;;;7.40;4.60;;;7.60;36.60;;;;;;5010145;28;20397;-74
2021/01/20 04:14:40;;;;;;;5.55;3.88;;;7.60;36.80;;;;;;5010165;28;20401;-72
2021/01/20 04:17:06;;;;;;;4.93;4.07;;;7.60;37.10;;;;;;5010718;28;20388;-71
2021/01/20 04:19:31;;;;;;;4.50;3.75;;;7.70;37.20;;;;;;5010279;28;20790;-74
2021/01/20 04:21:57;;;;;;;4.93;4.00;;;7.70;36.80;;;;;;5010394;28;20389;-73
2021/01/20 04:24:22;;;;;;;5.57;4.20;;;7.70;37.70;;;;;;5010059;28;20960;-72
2021/01/20 04:26:48;;;;;;;6.32;3.95;;;7.70;37.20;;;;;;5010541;28;20885;-73
2021/01/20 04:29:16;;;;;;;5.85;4.15;;;7.80;37.20;;;;;;5010309;28;20415;-74
2021/01/20 04:31:41;;;;;;;8.77;4.88;;;7.90;36.30;;;;;;5010407;28;20388;-73
2021/01/20 04:34:07;;;;;;;5.22;4.00;;;8.00;36.30;;;;;;5009991;28;20407;-73
2021/01/20 04:36:33;;;;;;;5.43;4.30;;;7.90;36.80;;;;;;5010559;28;20450;-73
2021/01/20 04:38:59;;;;;;;8.32;4.45;;;7.90;36.10;;;;;;5010332;28;20420;-72
2021/01/20 04:41:25;;;;;;;5.90;4.00;;;7.90;36.30;;;;;;5010589;28;20400;-74
2021/01/20 04:43:51;;;;;;;4.88;4.13;;;7.90;35.70;;;;;;5010516;28;20450;-73
2021/01/20 04:46:17;;;;;;;6.30;4.40;;;7.90;36.20;;;;;;5014698;28;20420;-73
2021/01/20 04:48:45;;;;;;;9.40;4.77;;;7.90;36.20;;;;;;5014515;28;20404;-74
2021/01/20 04:51:11;;;;;;;12.77;4.60;;;7.90;36.00;;;;;;5014366;28;20866;-73
2021/01/20 04:53:40;;;;;;;8.32;4.40;;;7.90;35.80;;;;;;5014326;28;20430;-72
2021/01/20 04:56:09;;;;;;;6.40;4.50;;;7.90;35.10;;;;;;5014316;28;20976;-74
2021/01/20 04:58:35;;;;;;;7.55;4.88;;;8.00;34.50;;;;;;5014052;28;20420;-73
2021/01/20 05:01:01;;;;;;;6.35;4.35;;;8.10;34.40;;;;;;5013483;28;20415;-73
2021/01/20 05:03:27;;;;;;;5.90;3.90;;;8.10;34.10;;;;;;5014295;28;20388;-74
2021/01/20 05:05:55;;;;;;;6.57;4.80;;;8.00;34.20;;;;;;5014042;28;20385;-73
2021/01/20 05:08:20;;;;;;;6.55;4.47;;;8.00;34.50;;;;;;5013582;28;20373;-75
2021/01/20 05:10:50;;;;;;;11.63;4.47;;;8.00;34.30;;;;;;5013801;28;20439;-72
2021/01/20 05:13:44;;;;;;;4.88;4.22;;;8.00;33.90;;;;;;5015042;28;20391;-73
2021/01/20 05:16:24;;;;;;;4.80;4.40;;;7.90;34.60;;;;;;5011489;28;20882;-73
2021/01/20 05:18:50;;;;;;;8.82;4.22;;;7.90;34.20;;;;;;5014319;28;20416;-74
2021/01/20 05:21:19;;;;;;;6.33;4.30;;;7.90;34.40;;;;;;5014182;28;20724;-73
2021/01/20 05:23:45;;;;;;;6.65;4.30;;;7.90;33.70;;;;;;5013281;28;20428;-72
2021/01/20 05:26:10;;;;;;;4.72;4.25;;;7.90;34.40;;;;;;5013735;28;20419;-73
2021/01/20 05:28:39;;;;;;;6.20;4.22;;;7.90;33.90;;;;;;5012247;28;20508;-74
2021/01/20 05:31:04;;;;;;;8.95;4.30;;;7.70;34.50;;;;;;5013622;28;20635;-74
2021/01/20 05:33:37;;;;;;;6.57;4.40;;;7.70;34.30;;;;;;5014434;28;20430;-75
2021/01/20 05:36:11;;;;;;;10.23;4.03;;;7.80;34.20;;;;;;5014602;28;20501;-74
2021/01/20 05:38:49;;;;;;;6.38;3.95;;;7.70;34.10;;;;;;5012037;28;20480;-72
2021/01/20 05:41:21;;;;;;;5.13;4.07;;;7.70;34.30;;;;;;5014523;28;20470;-75
2021/01/20 05:43:48;;;;;;;6.22;3.78;;;7.80;33.60;;;;;;5014952;28;20523;-74
2021/01/20 05:46:28;;;;;;;6.72;4.53;;;7.90;33.20;;;;;;5015049;28;20381;-73
2021/01/20 05:48:54;;;;;;;8.10;4.20;;;8.00;32.60;;;;;;5014196;28;20392;-73
2021/01/20 05:51:19;;;;;;;6.90;4.23;;;8.10;32.70;;;;;;5012965;28;20450;-73
2021/01/20 05:54:03;;;;;;;7.03;4.00;;;8.20;32.50;;;;;;5013996;28;20393;-73
2021/01/20 05:56:30;;;;;;;5.30;4.10;;;8.20;32.30;;;;;;5013717;28;20404;-75
2021/01/20 05:58:57;;;;;;;6.03;5.00;;;8.30;31.90;;;;;;5015255;28;20898;-73
2021/01/20 06:01:23;;;;;;;8.50;4.78;;;8.40;31.50;;;;;;5014801;28;20396;-73
2021/01/20 06:03:49;;;;;;;8.52;4.32;;;8.40;31.50;;;;;;5013625;28;20742;-72
2021/01/20 06:06:16;;;;;;;7.13;4.30;;;8.50;31.20;;;;;;5012677;28;20508;-74
2021/01/20 06:08:43;;;;;;;7.28;4.80;;;8.50;31.50;;;;;;5012819;28;20397;-74
2021/01/20 06:11:08;;;;;;;8.48;4.05;;;8.40;31.40;;;;;;5013127;28;20393;-73
2021/01/20 06:13:35;;;;;;;7.20;4.40;;;8.50;30.60;;;;;;5012509;28;20381;-74
2021/01/20 06:16:14;;;;;;;7.90;4.93;;;8.50;31.20;;;;;;5012699;28;20389;-74
2021/01/20 06:18:47;;;;;;;11.00;4.60;;;8.50;31.50;;;;;;5012243;28;20474;-74
2021/01/20 06:21:14;;;;;;;6.78;4.40;;;8.50;31.50;;;;;;5012466;28;20458;-74
2021/01/20 06:23:47;;;;;;;8.00;5.10;;;8.50;31.80;;;;;;5012207;28;20416;-74
2021/01/20 06:26:14;;;;;;;6.30;4.60;;;8.50;32.00;;;;;;5011711;28;20405;-73
2021/01/20 06:28:48;;;;;;;5.70;4.40;;;8.50;31.90;;;;;;5011572;28;20435;-73
2021/01/20 06:31:14;;;;;;;8.52;5.20;;;8.50;32.00;;;;;;5012435;28;20476;-73
2021/01/20 06:33:40;;;;;;;8.30;4.40;;;8.50;32.60;;;;;;5011645;28;20483;-72
2021/01/20 06:36:05;;;;;;;12.35;4.88;;;8.50;32.80;;;;;;5012462;28;20475;-74
2021/01/20 06:38:32;;;;;;;8.30;5.13;;;8.40;32.60;;;;;;5012141;28;20526;-74
2021/01/20 06:41:27;;;;;;;5.07;4.20;;;8.50;32.10;;;;;;5010815;28;20393;-74
2021/01/20 06:44:07;;;;;;;5.53;4.28;;;8.50;32.00;;;;;;5011773;28;20389;-73
2021/01/20 06:46:32;;;;;;;6.72;4.22;;;8.50;32.90;;;;;;5011778;28;20396;-73
2021/01/20 06:48:59;;;;;;;6.50;4.20;;;8.60;32.30;;;;;;5011370;28;20499;-73
2021/01/20 06:51:29;;;;;;;8.10;4.28;;;8.60;32.00;;;;;;5012048;28;20809;-72
2021/01/20 06:56:56;;;;;;;6.45;3.83;;;8.60;32.30;;;;;;5011869;28;20488;-72
2021/01/20 06:59:23;;;;;;;4.95;4.10;;;8.60;32.90;;;;;;4998768;28;20460;-73
2021/01/20 07:02:04;;;;;;;4.72;4.03;;;8.60;33.50;;;;;;5011141;28;20401;-73
2021/01/20 07:04:38;;;;;;;3.80;3.40;;;8.50;34.30;;;;;;5011648;28;20381;-73
2021/01/20 07:07:08;;;;;;;7.20;3.88;;;8.60;34.00;;;;;;5011111;28;20389;-73
2021/01/20 07:09:49;;;;;;;5.53;3.70;;;8.50;33.80;;;;;;5010799;28;20451;-73
2021/01/20 07:12:22;;;;;;;6.78;4.00;;;8.50;33.70;;;;;;5015301;28;20426;-73
2021/01/20 07:14:57;;;;;;;4.00;3.60;;;8.50;34.00;;;;;;5014882;28;20758;-73
2021/01/20 07:17:23;;;;;;;6.30;4.10;;;8.60;33.30;;;;;;5014794;28;20393;-71
2021/01/20 07:19:49;;;;;;;4.82;3.80;;;8.40;34.00;;;;;;5015023;28;20415;-71
2021/01/20 07:22:16;;;;;;;8.55;3.85;;;8.50;34.10;;;;;;5012228;28;20419;-72
2021/01/20 07:24:43;;;;;;;6.03;3.80;;;8.50;34.10;;;;;;5011585;28;20537;-71
2021/01/20 07:27:12;;;;;;;5.80;3.70;;;8.50;34.00;;;;;;5010841;28;20404;-74
2021/01/20 07:29:39;;;;;;;4.40;3.55;;;8.40;34.50;;;;;;4994448;28;20390;-73
2021/01/20 07:32:06;;;;;;;5.40;3.67;;;8.50;33.70;;;;;;4993929;28;20417;-73
2021/01/20 07:34:43;;;;;;;9.57;3.72;;;8.60;33.30;;;;;;4996454;28;20451;-75
2021/01/20 07:37:10;;;;;;;5.80;3.45;;;8.50;33.10;;;;;;4995348;28;20755;-71
2021/01/20 07:39:36;;;;;;;3.88;3.00;;;8.60;32.80;;;;;;4997281;28;20417;-72
2021/01/20 07:42:02;;;;;;;8.32;3.85;;;8.60;32.90;;;;;;5006795;28;20412;-73
2021/01/20 07:44:28;;;;;;;6.40;4.10;;;8.60;33.00;;;;;;5010734;28;20519;-70
2021/01/20 07:47:02;;;;;;;7.35;3.50;;;8.70;33.00;;;;;;5010326;28;20468;-72
2021/01/20 07:49:28;;;;;;;4.60;3.60;;;8.70;32.20;;;;;;5010065;28;20407;-72
2021/01/20 07:52:01;;;;;;;6.20;3.50;;;8.70;31.90;;;;;;5010527;28;20397;-72
2021/01/20 07:54:37;;;;;;;4.13;3.08;;;8.70;33.00;;;;;;5010517;28;20388;-72
2021/01/20 07:57:05;;;;;;;9.27;3.70;;;8.70;32.20;;;;;;4992164;28;20390;-74
2021/01/20 07:59:33;;;;;;;5.00;3.30;;;8.70;32.40;;;;;;5010330;28;20417;-74
2021/01/20 08:02:09;;;;;;;6.18;3.20;;;8.70;31.20;;;;;;5010465;28;20411;-72
2021/01/20 08:04:35;;;;;;;5.68;3.50;;;8.70;31.60;;;;;;5010734;28;20411;-73
2021/01/20 08:07:01;;;;;;;6.13;4.13;;;8.80;31.40;;;;;;5010733;28;20385;-72
2021/01/20 08:09:45;;;;;;;4.45;3.55;;;8.70;32.10;;;;;;5017067;28;20756;-72
2021/01/20 08:12:15;;;;;;;5.88;3.60;;;8.70;31.80;;;;;;5010147;28;20882;-72
2021/01/20 08:14:42;;;;;;;7.70;3.80;;;8.70;31.80;;;;;;5012611;28;20431;-73
2021/01/20 08:17:09;;;;;;;13.18;3.80;;;8.80;31.70;;;;;;5017109;28;20396;-72
2021/01/20 08:19:35;;;;;;;5.20;3.70;;;8.80;31.30;;;;;;5017273;28;20415;-72
2021/01/20 08:22:12;;;;;;;6.90;4.18;;;8.80;31.50;;;;;;5013348;28;20392;-74
2021/01/20 08:24:46;;;;;;;5.03;3.55;;;8.80;31.80;;;;;;5010358;28;20466;-73
2021/01/20 08:27:13;;;;;;;5.72;3.40;;;8.90;31.80;;;;;;5009808;28;20818;-73
2021/01/20 08:29:53;;;;;;;6.40;3.70;;;8.90;31.40;;;;;;5010268;28;20471;-73
2021/01/20 08:32:19;;;;;;;6.47;4.05;;;8.90;31.40;;;;;;5009724;28;20415;-72
2021/01/20 08:34:46;;;;;;;8.40;4.50;;;8.90;31.40;;;;;;5018276;28;20413;-74
2021/01/20 08:37:32;;;;;;;7.75;4.13;;;8.90;30.60;;;;;;5016323;28;20513;-72
2021/01/20 08:39:59;;;;;;;6.97;4.13;;;9.00;30.60;;;;;;5004511;28;20409;-72
2021/01/20 08:42:32;;;;;;;5.53;4.15;;;9.10;29.80;;;;;;5009582;28;20400;-75
2021/01/20 08:45:20;;;;;;;7.05;4.05;;;9.10;29.40;;;;;;5009804;28;20432;-73
2021/01/20 08:48:02;;;;;;;8.53;4.20;;;9.10;29.20;;;;;;5011208;28;20485;-73
2021/01/20 08:50:27;;;;;;;9.65;4.20;;;9.20;28.80;;;;;;4994094;28;20891;-74
2021/01/20 08:52:55;;;;;;;7.65;4.25;;;9.30;28.00;;;;;;5011889;28;20405;-74
2021/01/20 08:55:27;;;;;;;5.93;3.80;;;9.20;29.10;;;;;;5009504;28;20412;-73
2021/01/20 08:58:18;;;;;;;4.22;3.72;;;9.20;28.10;;;;;;5009219;28;20487;-73
2021/01/20 09:00:45;;;;;;;5.20;3.90;;;9.30;27.90;;;;;;5008773;28;20396;-72
2021/01/20 09:03:21;;;;;;;4.63;3.40;;;9.30;28.60;;;;;;5009422;28;20436;-72
2021/01/20 09:05:48;;;;;;;5.80;3.80;;;9.40;28.50;;;;;;5009054;28;20732;-74
2021/01/20 09:08:14;;;;;;;8.88;4.20;;;9.40;28.50;;;;;;5008808;28;20492;-73
2021/01/20 09:10:41;;;;;;;8.40;3.70;;;9.40;27.90;;;;;;5008128;28;20491;-72
2021/01/20 09:13:07;;;;;;;5.72;3.95;;;9.50;27.40;;;;;;5009962;28;20420;-73
2021/01/20 09:15:32;;;;;;;8.70;3.90;;;9.60;27.10;;;;;;5008984;28;20409;-72
2021/01/20 09:17:58;;;;;;;4.85;3.50;;;9.70;27.40;;;;;;5008287;28;20396;-73
2021/01/20 09:20:24;;;;;;;8.05;4.10;;;9.70;26.80;;;;;;5009630;28;20404;-73
2021/01/20 09:22:50;;;;;;;6.50;4.15;;;9.70;26.40;;;;;;5009117;28;20428;-74
2021/01/20 09:25:16;;;;;;;7.87;4.00;;;9.80;25.90;;;;;;5009888;28;20420;-74
2021/01/20 09:27:41;;;;;;;4.60;3.60;;;9.80;25.30;;;;;;5008648;28;20448;-73
2021/01/20 09:30:08;;;;;;;3.87;3.47;;;9.80;25.10;;;;;;5009614;28;20393;-72
2021/01/20 09:32:40;;;;;;;8.40;4.28;;;9.80;25.40;;;;;;5011051;28;20878;-74
2021/01/20 09:35:07;;;;;;;6.65;4.10;;;9.70;25.40;;;;;;5013358;28;20393;-73
2021/01/20 09:37:33;;;;;;;6.55;3.95;;;9.70;25.30;;;;;;5012329;28;20408;-71
2021/01/20 09:39:58;;;;;;;7.85;4.30;;;9.50;25.80;;;;;;5013444;28;20471;-73
2021/01/20 09:42:24;;;;;;;7.97;4.55;;;9.40;26.30;;;;;;5013244;28;20404;-72
2021/01/20 09:44:50;;;;;;;7.75;4.10;;;9.40;26.80;;;;;;5015205;28;20475;-73
2021/01/20 09:47:15;;;;;;;6.65;4.50;;;9.30;26.00;;;;;;5012212;28;20400;-71
2021/01/20 09:49:43;;;;;;;9.68;4.10;;;9.30;26.50;;;;;;5014661;28;20812;-73
2021/01/20 09:52:10;;;;;;;6.00;4.45;;;9.20;26.00;;;;;;5013604;28;20470;-73
2021/01/20 09:54:36;;;;;;;5.95;4.00;;;9.30;26.50;;;;;;5015192;28;20389;-72
2021/01/20 09:57:03;;;;;;;8.35;5.05;;;9.30;25.20;;;;;;5014083;28;21037;-73
2021/01/20 09:59:29;;;;;;;7.40;4.28;;;9.30;26.10;;;;;;5012737;28;20413;-71
2021/01/20 10:01:54;;;;;;;6.90;4.30;;;9.30;25.00;;;;;;5011450;28;20912;-73
2021/01/20 10:04:20;;;;;;;7.03;4.77;;;9.30;25.50;;;;;;5015950;28;20806;-72
2021/01/20 10:06:45;;;;;;;5.60;4.50;;;9.30;25.10;;;;;;5014344;28;20401;-73
2021/01/20 10:09:11;;;;;;;7.45;4.75;;;9.20;25.10;;;;;;5014656;28;20393;-72
2021/01/20 10:11:36;;;;;;;8.60;4.28;;;9.20;26.00;;;;;;5014788;28;20404;-73
2021/01/20 10:14:02;;;;;;;5.10;4.23;;;9.20;25.20;;;;;;5016448;28;20397;-73
2021/01/20 10:16:27;;;;;;;9.73;4.77;;;9.20;26.30;;;;;;5013001;28;20408;-73
2021/01/20 10:18:53;;;;;;;8.70;4.50;;;9.20;24.90;;;;;;5010205;28;20416;-73
2021/01/20 10:21:18;;;;;;;5.63;4.27;;;9.20;24.20;;;;;;5011547;28;20470;-73
2021/01/20 10:23:44;;;;;;;6.00;3.93;;;9.20;24.60;;;;;;5012549;28;20392;-72
2021/01/20 10:26:09;;;;;;;5.40;4.40;;;9.30;24.20;;;;;;5011311;28;20460;-73
2021/01/20 10:28:35;;;;;;;6.28;4.20;;;9.20;24.00;;;;;;5000993;28;20391;-73
2021/01/20 10:31:00;;;;;;;6.25;4.00;;;9.30;23.70;;;;;;5006985;28;20759;-73
2021/01/20 10:33:26;;;;;;;6.85;4.15;;;9.30;23.90;;;;;;5015329;28;20391;-72
2021/01/20 10:35:51;;;;;;;8.00;4.30;;;9.20;23.20;;;;;;5013005;28;20404;-73
2021/01/20 10:38:18;;;;;;;7.33;4.30;;;9.20;23.50;;;;;;5011208;28;20450;-72
2021/01/20 10:40:44;;;;;;;4.82;4.15;;;9.20;23.90;;;;;;5008934;28;20413;-74
2021/01/20 10:43:10;;;;;;;10.20;4.93;;;9.30;22.60;;;;;;5012503;28;20450;-76
2021/01/20 10:45:35;;;;;;;6.03;4.20;;;9.30;23.30;;;;;;5011738;28;20939;-74
2021/01/20 10:48:01;;;;;;;5.10;4.28;;;9.30;23.60;;;;;;5012425;28;20794;-72
2021/01/20 10:50:26;;;;;;;11.20;5.07;;;9.40;23.00;;;;;;5011106;28;20444;-74
2021/01/20 10:52:52;;;;;;;6.18;4.22;;;9.50;23.10;;;;;;5012415;28;20759;-74
2021/01/20 10:55:17;;;;;;;7.10;4.47;;;9.60;22.60;;;;;;5011289;28;20763;-72
2021/01/20 10:57:44;;;;;;;11.10;4.70;;;9.70;22.10;;;;;;5015707;28;20393;-72
2021/01/20 11:00:10;;;;;;;7.05;4.45;;;9.70;22.20;;;;;;5019070;28;20404;-73
2021/01/20 11:02:35;;;;;;;8.65;4.70;;;9.70;22.40;;;;;;5014667;28;20767;-71
2021/01/20 11:05:01;;;;;;;7.63;4.28;;;9.70;21.90;;;;;;5011484;28;20404;-71
2021/01/20 11:07:26;;;;;;;6.72;4.40;;;9.60;21.90;;;;;;5009922;28;20405;-73
2021/01/20 11:09:53;;;;;;;8.55;5.20;;;9.50;22.50;;;;;;5015089;28;20625;-72
2021/01/20 11:12:19;;;;;;;11.40;4.65;;;9.70;22.70;;;;;;5014493;28;20761;-72
2021/01/20 11:14:44;;;;;;;5.55;4.60;;;9.70;22.30;;;;;;5010344;28;20413;-72
2021/01/20 11:17:10;;;;;;;9.25;4.63;;;9.70;22.00;;;;;;5011112;28;20401;-74
2021/01/20 11:19:36;;;;;;;7.00;4.72;;;9.80;21.80;;;;;;5009317;28;20457;-71
2021/01/20 11:22:01;;;;;;;11.18;5.00;;;10.00;20.80;;;;;;5009937;28;20455;-72
2021/01/20 11:24:27;;;;;;;9.35;5.70;;;10.20;20.30;;;;;;5010801;28;20899;-71
2021/01/20 11:26:52;;;;;;;5.00;4.50;;;10.50;19.40;;;;;;5010237;28;20408;-71
2021/01/20 11:29:18;;;;;;;5.72;4.45;;;10.50;19.80;;;;;;5009871;28;20400;-73
2021/01/20 11:31:45;;;;;;;11.13;4.80;;;10.60;19.70;;;;;;5010629;28;20444;-74
2021/01/20 11:34:10;;;;;;;8.30;4.20;;;10.70;18.90;;;;;;5010160;28;20412;-70
2021/01/20 11:36:36;;;;;;;7.70;4.50;;;10.80;18.60;;;;;;5010081;28;20607;-71
2021/01/20 11:39:02;;;;;;;8.53;4.27;;;10.70;19.20;;;;;;5009887;28;20408;-70
2021/01/20 11:41:27;;;;;;;8.52;4.45;;;10.70;19.00;;;;;;5011258;28;20787;-71
2021/01/20 11:43:53;;;;;;;8.17;5.10;;;10.70;18.40;;;;;;5009980;28;20485;-72
2021/01/20 11:46:22;;;;;;;7.32;4.60;;;10.80;18.70;;;;;;5010990;28;20905;-70
2021/01/20 11:48:48;;;;;;;5.85;4.13;;;10.70;18.40;;;;;;5008699;28;20878;-71
2021/01/20 11:51:14;;;;;;;7.95;4.80;;;10.70;19.00;;;;;;5010703;28;20894;-71
2021/01/20 11:53:40;;;;;;;10.95;5.15;;;10.80;18.80;;;;;;5009346;28;20478;-73
2021/01/20 11:56:05;;;;;;;6.17;4.00;;;10.80;18.70;;;;;;5009304;28;20499;-74
2021/01/20 11:58:31;;;;;;;4.77;4.27;;;10.70;18.20;;;;;;5008196;28;20405;-71
2021/01/20 12:00:57;;;;;;;6.23;4.47;;;10.70;18.40;;;;;;5010504;28;20395;-71
2021/01/20 12:03:23;;;;;;;8.47;4.77;;;10.70;19.00;;;;;;5010622;28;20501;-73
2021/01/20 12:05:53;;;;;;;6.97;4.28;;;10.60;19.20;;;;;;5012250;28;20442;-72
2021/01/20 12:08:19;;;;;;;8.50;4.97;;;10.70;18.10;;;;;;5011153;28;20432;-72
2021/01/20 12:10:45;;;;;;;4.97;3.70;;;10.80;18.20;;;;;;4992996;28;20394;-71
2021/01/20 12:13:11;;;;;;;8.65;4.57;;;10.90;17.60;;;;;;4998989;28;20969;-71
2021/01/20 12:15:37;;;;;;;6.32;4.40;;;10.90;18.30;;;;;;5011674;28;20450;-72
2021/01/20 12:18:03;;;;;;;7.82;4.40;;;10.90;17.70;;;;;;5013234;28;20420;-73
2021/01/20 12:20:28;;;;;;;6.53;4.45;;;11.00;17.80;;;;;;5009097;28;20400;-72
2021/01/20 12:22:54;;;;;;;6.80;4.80;;;11.00;17.60;;;;;;5009343;28;20405;-73
2021/01/20 12:25:19;;;;;;;7.50;4.43;;;11.00;17.90;;;;;;5010225;28;20443;-71
2021/01/20 12:27:45;;;;;;;7.13;4.33;;;10.90;17.80;;;;;;5013674;28;20415;-71
2021/01/20 12:30:11;;;;;;;8.50;4.60;;;10.90;18.00;;;;;;5015151;28;20454;-72
2021/01/20 12:32:37;;;;;;;9.27;4.90;;;10.90;17.70;;;;;;5017396;28;20409;-72
2021/01/20 12:35:05;;;;;;;5.80;4.45;;;10.90;17.90;;;;;;5012987;28;20412;-71
2021/01/20 12:37:30;;;;;;;8.68;4.60;;;10.90;17.70;;;;;;5014996;28;20398;-73
2021/01/20 12:39:56;;;;;;;6.32;4.90;;;10.90;18.00;;;;;;5013690;28;20416;-74
2021/01/20 12:42:21;;;;;;;6.43;4.70;;;10.90;17.90;;;;;;5014536;28;20409;-74
2021/01/20 12:44:47;;;;;;;6.37;4.30;;;10.90;17.90;;;;;;5015590;28;20937;-72
2021/01/20 12:47:12;;;;;;;7.43;4.50;;;11.00;17.10;;;;;;5015869;28;20431;-71
2021/01/20 12:49:38;;;;;;;6.77;4.20;;;11.10;17.30;;;;;;5013535;28;20417;-72
2021/01/20 12:52:03;;;;;;;5.83;4.80;;;11.10;17.30;;;;;;5014848;28;20886;-71
2021/01/20 12:54:29;;;;;;;8.03;4.57;;;11.00;17.40;;;;;;5013459;28;20754;-70
2021/01/20 12:56:55;;;;;;;12.60;5.03;;;10.90;18.00;;;;;;5009476;28;20795;-74
2021/01/20 12:59:20;;;;;;;6.43;4.23;;;10.90;18.20;;;;;;5008488;28;20423;-72
2021/01/20 13:01:46;;;;;;;7.50;5.17;;;10.80;18.00;;;;;;5011636;28;20396;-74